sensor_id;sensor_type;location;lat;lon;timestamp;temperature;humidity
490;DHT22;231;48.120;11.576;2024-03-02T00:01:31;6.30;99.90
490;DHT22;231;48.120;11.576;2024-03-02T00:03:58;6.30;99.90
490;DHT22;231;48.120;11.576;2024-03-02T00:06:25;6.30;99.90
490;DHT22;231;48.120;11.576;2024-03-02T00:08:57;6.30;99.90
490;DHT22;231;48.120;11.576;2024-03-02T00:11:24;6.30;99.90
490;DHT22;231;48.120;11.576;2024-03-02T00:13:52;6.30;99.90
490;DHT22;231;48.120;11.576;2024-03-02T00:16:21;6.30;99.90
490;DHT22;231;48.120;11.576;2024-03-02T00:18:49;6.30;99.90
490;DHT22;231;48.120;11.576;2024-03-02T00:21:16;6.30;99.90
490;DHT22;231;48.120;11.576;2024-03-02T00:23:45;6.30;99.90
490;DHT22;231;48.120;11.576;2024-03-02T00:26:12;6.30;99.90
490;DHT22;231;48.120;11.576;2024-03-02T00:28:40;6.30;99.90
490;DHT22;231;48.120;11.576;2024-03-02T00:31:09;6.30;99.90
490;DHT22;231;48.120;11.576;2024-03-02T00:33:41;6.30;99.90
490;DHT22;231;48.120;11.576;2024-03-02T00:36:08;6.30;99.90
490;DHT22;231;48.120;11.576;2024-03-02T00:38:46;6.20;99.90
490;DHT22;231;48.120;11.576;2024-03-02T00:41:17;6.20;99.90
490;DHT22;231;48.120;11.576;2024-03-02T00:43:57;6.20;99.90
490;DHT22;231;48.120;11.576;2024-03-02T00:46:24;6.20;99.90
490;DHT22;231;48.120;11.576;2024-03-02T00:48:54;6.20;99.90
490;DHT22;231;48.120;11.576;2024-03-02T00:51:25;6.10;99.90
490;DHT22;231;48.120;11.576;2024-03-02T00:53:53;6.10;99.90
490;DHT22;231;48.120;11.576;2024-03-02T00:56:22;6.20;99.90
490;DHT22;231;48.120;11.576;2024-03-02T00:58:49;6.10;99.90
490;DHT22;231;48.120;11.576;2024-03-02T01:01:17;6.10;99.90
490;DHT22;231;48.120;11.576;2024-03-02T01:03:43;6.10;99.90
490;DHT22;231;48.120;11.576;2024-03-02T01:06:12;6.00;99.90
490;DHT22;231;48.120;11.576;2024-03-02T01:08:39;6.00;99.90
490;DHT22;231;48.120;11.576;2024-03-02T01:11:06;6.00;99.90
490;DHT22;231;48.120;11.576;2024-03-02T01:13:33;6.00;99.90
490;DHT22;231;48.120;11.576;2024-03-02T01:16:00;6.00;99.90
490;DHT22;231;48.120;11.576;2024-03-02T01:18:27;6.00;99.90
490;DHT22;231;48.120;11.576;2024-03-02T01:20:54;6.00;99.90
490;DHT22;231;48.120;11.576;2024-03-02T01:23:23;6.00;99.90
490;DHT22;231;48.120;11.576;2024-03-02T01:25:50;6.00;99.90
490;DHT22;231;48.120;11.576;2024-03-02T01:28:17;5.90;99.90
490;DHT22;231;48.120;11.576;2024-03-02T01:30:44;5.90;99.90
490;DHT22;231;48.120;11.576;2024-03-02T01:33:11;5.90;99.90
490;DHT22;231;48.120;11.576;2024-03-02T01:35:38;5.90;99.90
490;DHT22;231;48.120;11.576;2024-03-02T01:38:05;6.00;99.90
490;DHT22;231;48.120;11.576;2024-03-02T01:40:34;5.90;99.90
490;DHT22;231;48.120;11.576;2024-03-02T01:43:01;6.00;99.90
490;DHT22;231;48.120;11.576;2024-03-02T02:03:19;5.90;99.90
490;DHT22;231;48.120;11.576;2024-03-02T02:06:04;5.90;99.90
490;DHT22;231;48.120;11.576;2024-03-02T02:56:42;5.90;99.90
490;DHT22;231;48.120;11.576;2024-03-02T02:59:33;5.90;99.90
490;DHT22;231;48.120;11.576;2024-03-02T03:05:42;6.00;99.90
490;DHT22;231;48.120;11.576;2024-03-02T03:08:15;6.10;99.90
490;DHT22;231;48.120;11.576;2024-03-02T03:10:46;6.10;99.90
490;DHT22;231;48.120;11.576;2024-03-02T03:13:48;6.10;99.90
490;DHT22;231;48.120;11.576;2024-03-02T03:16:38;6.10;99.90
490;DHT22;231;48.120;11.576;2024-03-02T03:19:27;6.20;99.90
490;DHT22;231;48.120;11.576;2024-03-02T03:25:11;6.20;99.90
490;DHT22;231;48.120;11.576;2024-03-02T03:27:42;6.30;99.90
490;DHT22;231;48.120;11.576;2024-03-02T03:30:21;6.30;99.90
490;DHT22;231;48.120;11.576;2024-03-02T03:32:56;6.40;99.90
490;DHT22;231;48.120;11.576;2024-03-02T03:35:52;6.30;99.90
490;DHT22;231;48.120;11.576;2024-03-02T03:38:48;6.30;99.90
490;DHT22;231;48.120;11.576;2024-03-02T03:41:23;6.40;99.90
490;DHT22;231;48.120;11.576;2024-03-02T03:44:27;6.40;99.90
490;DHT22;231;48.120;11.576;2024-03-02T03:47:06;6.40;99.90
490;DHT22;231;48.120;11.576;2024-03-02T03:49:42;6.40;99.90
490;DHT22;231;48.120;11.576;2024-03-02T03:52:22;6.40;99.90
490;DHT22;231;48.120;11.576;2024-03-02T03:54:53;6.40;99.90
490;DHT22;231;48.120;11.576;2024-03-02T03:57:21;6.40;99.90
490;DHT22;231;48.120;11.576;2024-03-02T03:59:48;6.40;99.90
490;DHT22;231;48.120;11.576;2024-03-02T04:02:16;6.40;99.90
490;DHT22;231;48.120;11.576;2024-03-02T04:04:43;6.40;99.90
490;DHT22;231;48.120;11.576;2024-03-02T04:07:10;6.40;99.90
490;DHT22;231;48.120;11.576;2024-03-02T04:09:37;6.40;99.90
490;DHT22;231;48.120;11.576;2024-03-02T04:12:04;6.40;99.90
490;DHT22;231;48.120;11.576;2024-03-02T04:14:31;6.40;99.90
490;DHT22;231;48.120;11.576;2024-03-02T04:16:58;6.40;99.90
490;DHT22;231;48.120;11.576;2024-03-02T04:19:27;6.40;99.90
490;DHT22;231;48.120;11.576;2024-03-02T04:21:53;6.40;99.90
490;DHT22;231;48.120;11.576;2024-03-02T04:24:20;6.40;99.90
490;DHT22;231;48.120;11.576;2024-03-02T04:26:47;6.40;99.90
490;DHT22;231;48.120;11.576;2024-03-02T04:29:14;6.40;99.90
490;DHT22;231;48.120;11.576;2024-03-02T04:31:41;6.30;99.90
490;DHT22;231;48.120;11.576;2024-03-02T09:27:39;26.40;21.10
490;DHT22;231;48.120;11.576;2024-03-02T09:30:08;27.30;1.00
490;DHT22;231;48.120;11.576;2024-03-02T09:32:35;27.80;1.00
490;DHT22;231;48.120;11.576;2024-03-02T09:35:02;28.10;1.00
490;DHT22;231;48.120;11.576;2024-03-02T09:37:29;28.80;1.00
490;DHT22;231;48.120;11.576;2024-03-02T09:39:56;29.60;1.00
490;DHT22;231;48.120;11.576;2024-03-02T09:42:23;30.00;1.00
490;DHT22;231;48.120;11.576;2024-03-02T09:44:53;29.90;1.00
490;DHT22;231;48.120;11.576;2024-03-02T09:47:19;30.50;1.00
490;DHT22;231;48.120;11.576;2024-03-02T09:49:47;31.20;1.00
490;DHT22;231;48.120;11.576;2024-03-02T09:52:14;31.00;1.00
490;DHT22;231;48.120;11.576;2024-03-02T09:54:41;30.90;1.00
490;DHT22;231;48.120;11.576;2024-03-02T09:57:08;30.50;1.00
490;DHT22;231;48.120;11.576;2024-03-02T09:59:36;30.50;1.00
490;DHT22;231;48.120;11.576;2024-03-02T10:02:04;30.10;1.00
490;DHT22;231;48.120;11.576;2024-03-02T10:04:32;28.70;1.00
490;DHT22;231;48.120;11.576;2024-03-02T10:07:11;28.30;1.00
490;DHT22;231;48.120;11.576;2024-03-02T10:09:38;28.80;1.00
490;DHT22;231;48.120;11.576;2024-03-02T10:12:06;28.40;1.00
490;DHT22;231;48.120;11.576;2024-03-02T10:14:34;27.80;1.00
490;DHT22;231;48.120;11.576;2024-03-02T10:17:07;27.70;1.00
490;DHT22;231;48.120;11.576;2024-03-02T10:19:34;27.90;1.00
490;DHT22;231;48.120;11.576;2024-03-02T10:22:03;28.10;1.00
490;DHT22;231;48.120;11.576;2024-03-02T10:24:41;28.70;1.00
490;DHT22;231;48.120;11.576;2024-03-02T10:27:10;28.60;1.00
490;DHT22;231;48.120;11.576;2024-03-02T10:29:41;28.30;1.00
490;DHT22;231;48.120;11.576;2024-03-02T10:32:13;28.40;1.00
490;DHT22;231;48.120;11.576;2024-03-02T10:34:40;28.70;1.00
490;DHT22;231;48.120;11.576;2024-03-02T10:37:08;29.10;1.00
490;DHT22;231;48.120;11.576;2024-03-02T10:39:35;29.70;1.00
490;DHT22;231;48.120;11.576;2024-03-02T10:42:06;29.60;1.00
490;DHT22;231;48.120;11.576;2024-03-02T10:44:33;29.70;1.00
490;DHT22;231;48.120;11.576;2024-03-02T10:47:01;29.10;1.00
490;DHT22;231;48.120;11.576;2024-03-02T10:49:31;28.60;1.00
490;DHT22;231;48.120;11.576;2024-03-02T10:51:58;28.90;1.00
490;DHT22;231;48.120;11.576;2024-03-02T10:54:25;29.40;1.00
490;DHT22;231;48.120;11.576;2024-03-02T10:56:56;29.20;1.00
490;DHT22;231;48.120;11.576;2024-03-02T10:59:27;28.70;1.00
490;DHT22;231;48.120;11.576;2024-03-02T11:01:57;29.00;1.00
490;DHT22;231;48.120;11.576;2024-03-02T11:04:30;29.20;1.00
490;DHT22;231;48.120;11.576;2024-03-02T11:07:25;29.10;1.00
490;DHT22;231;48.120;11.576;2024-03-02T11:09:57;29.20;1.00
490;DHT22;231;48.120;11.576;2024-03-02T11:12:31;29.30;1.00
490;DHT22;231;48.120;11.576;2024-03-02T11:15:07;29.10;1.00
490;DHT22;231;48.120;11.576;2024-03-02T11:28:36;28.40;1.00
490;DHT22;231;48.120;11.576;2024-03-02T11:31:57;28.60;1.00
490;DHT22;231;48.120;11.576;2024-03-02T11:34:29;29.40;1.00
490;DHT22;231;48.120;11.576;2024-03-02T11:36:56;29.90;1.00
490;DHT22;231;48.120;11.576;2024-03-02T11:39:24;30.10;1.00
490;DHT22;231;48.120;11.576;2024-03-02T11:41:53;29.90;1.00
490;DHT22;231;48.120;11.576;2024-03-02T11:44:24;29.90;1.00
490;DHT22;231;48.120;11.576;2024-03-02T11:46:52;29.80;1.00
490;DHT22;231;48.120;11.576;2024-03-02T11:49:41;29.20;1.00
490;DHT22;231;48.120;11.576;2024-03-02T11:52:13;28.40;1.00
490;DHT22;231;48.120;11.576;2024-03-02T11:54:42;27.60;1.00
490;DHT22;231;48.120;11.576;2024-03-02T11:57:14;27.10;1.00
490;DHT22;231;48.120;11.576;2024-03-02T11:59:42;27.30;1.00
490;DHT22;231;48.120;11.576;2024-03-02T12:02:15;27.70;1.00
490;DHT22;231;48.120;11.576;2024-03-02T13:54:14;13.90;8.10
490;DHT22;231;48.120;11.576;2024-03-02T13:56:41;13.90;8.50
490;DHT22;231;48.120;11.576;2024-03-02T13:59:08;13.90;9.00
490;DHT22;231;48.120;11.576;2024-03-02T14:01:35;13.90;8.60
490;DHT22;231;48.120;11.576;2024-03-02T14:04:02;14.00;8.30
490;DHT22;231;48.120;11.576;2024-03-02T14:06:28;14.10;7.90
490;DHT22;231;48.120;11.576;2024-03-02T14:08:58;14.20;6.20
490;DHT22;231;48.120;11.576;2024-03-02T14:11:26;14.10;4.60
490;DHT22;231;48.120;11.576;2024-03-02T14:13:54;13.90;4.80
490;DHT22;231;48.120;11.576;2024-03-02T14:16:22;13.80;5.00
490;DHT22;231;48.120;11.576;2024-03-02T14:18:49;13.80;5.20
490;DHT22;231;48.120;11.576;2024-03-02T14:21:16;13.90;2.00
490;DHT22;231;48.120;11.576;2024-03-02T14:23:42;14.00;2.40
490;DHT22;231;48.120;11.576;2024-03-02T14:26:09;13.90;3.50
490;DHT22;231;48.120;11.576;2024-03-02T14:28:37;14.00;3.10
490;DHT22;231;48.120;11.576;2024-03-02T14:31:04;14.10;3.50
490;DHT22;231;48.120;11.576;2024-03-02T14:33:31;14.10;4.40
490;DHT22;231;48.120;11.576;2024-03-02T14:35:58;14.00;4.40
490;DHT22;231;48.120;11.576;2024-03-02T14:38:25;14.10;4.80
490;DHT22;231;48.120;11.576;2024-03-02T14:40:52;13.90;4.50
490;DHT22;231;48.120;11.576;2024-03-02T14:43:19;13.80;5.10
490;DHT22;231;48.120;11.576;2024-03-02T14:45:47;13.70;5.70
490;DHT22;231;48.120;11.576;2024-03-02T14:48:14;13.60;5.70
490;DHT22;231;48.120;11.576;2024-03-02T14:50:42;13.60;5.50
490;DHT22;231;48.120;11.576;2024-03-02T14:53:09;13.60;4.90
490;DHT22;231;48.120;11.576;2024-03-02T14:55:35;13.60;4.90
490;DHT22;231;48.120;11.576;2024-03-02T14:58:02;13.60;5.60
490;DHT22;231;48.120;11.576;2024-03-02T15:00:29;13.70;3.40
490;DHT22;231;48.120;11.576;2024-03-02T15:02:57;13.70;3.70
490;DHT22;231;48.120;11.576;2024-03-02T15:05:24;13.70;1.70
490;DHT22;231;48.120;11.576;2024-03-02T15:07:52;13.80;1.00
490;DHT22;231;48.120;11.576;2024-03-02T15:10:19;13.80;1.10
490;DHT22;231;48.120;11.576;2024-03-02T15:12:46;13.90;1.00
490;DHT22;231;48.120;11.576;2024-03-02T15:15:13;13.80;1.00
490;DHT22;231;48.120;11.576;2024-03-02T15:17:39;13.80;3.10
490;DHT22;231;48.120;11.576;2024-03-02T15:20:09;13.70;3.40
490;DHT22;231;48.120;11.576;2024-03-02T15:22:36;13.70;3.30
490;DHT22;231;48.120;11.576;2024-03-02T15:25:03;13.60;4.70
490;DHT22;231;48.120;11.576;2024-03-02T15:27:30;13.60;4.60
490;DHT22;231;48.120;11.576;2024-03-02T15:29:57;13.60;6.10
490;DHT22;231;48.120;11.576;2024-03-02T15:32:25;13.30;6.70
490;DHT22;231;48.120;11.576;2024-03-02T15:34:52;13.20;7.50
490;DHT22;231;48.120;11.576;2024-03-02T15:37:20;13.00;8.70
490;DHT22;231;48.120;11.576;2024-03-02T15:39:47;12.90;8.30
490;DHT22;231;48.120;11.576;2024-03-02T15:42:14;12.80;8.30
490;DHT22;231;48.120;11.576;2024-03-02T15:44:41;12.70;8.60
490;DHT22;231;48.120;11.576;2024-03-02T15:47:08;12.70;8.70
490;DHT22;231;48.120;11.576;2024-03-02T15:49:35;12.60;9.20
490;DHT22;231;48.120;11.576;2024-03-02T15:52:02;12.50;9.80
490;DHT22;231;48.120;11.576;2024-03-02T15:54:30;12.50;10.20
490;DHT22;231;48.120;11.576;2024-03-02T15:56:57;12.50;10.50
490;DHT22;231;48.120;11.576;2024-03-02T15:59:24;12.40;10.60
490;DHT22;231;48.120;11.576;2024-03-02T16:01:49;12.40;10.90
490;DHT22;231;48.120;11.576;2024-03-02T16:04:16;12.30;11.20
490;DHT22;231;48.120;11.576;2024-03-02T16:06:43;12.40;10.70
490;DHT22;231;48.120;11.576;2024-03-02T16:09:10;12.40;10.80
490;DHT22;231;48.120;11.576;2024-03-02T16:11:38;12.40;8.00
490;DHT22;231;48.120;11.576;2024-03-02T16:14:05;12.40;8.30
490;DHT22;231;48.120;11.576;2024-03-02T16:16:32;12.30;8.00
490;DHT22;231;48.120;11.576;2024-03-02T16:19:00;12.10;8.20
490;DHT22;231;48.120;11.576;2024-03-02T16:21:28;12.00;8.70
490;DHT22;231;48.120;11.576;2024-03-02T16:23:55;11.90;11.00
490;DHT22;231;48.120;11.576;2024-03-02T16:26:24;11.70;13.10
490;DHT22;231;48.120;11.576;2024-03-02T16:28:52;11.60;14.70
490;DHT22;231;48.120;11.576;2024-03-02T16:31:19;11.50;17.40
490;DHT22;231;48.120;11.576;2024-03-02T16:33:46;11.40;18.40
490;DHT22;231;48.120;11.576;2024-03-02T16:36:13;11.30;19.30
490;DHT22;231;48.120;11.576;2024-03-02T16:38:40;11.20;19.90
490;DHT22;231;48.120;11.576;2024-03-02T16:41:09;11.10;20.30
490;DHT22;231;48.120;11.576;2024-03-02T16:43:36;10.90;20.80
490;DHT22;231;48.120;11.576;2024-03-02T16:46:04;10.80;21.80
490;DHT22;231;48.120;11.576;2024-03-02T16:48:32;10.70;22.80
490;DHT22;231;48.120;11.576;2024-03-02T16:50:59;10.50;23.70
490;DHT22;231;48.120;11.576;2024-03-02T16:53:26;10.50;23.10
490;DHT22;231;48.120;11.576;2024-03-02T16:55:53;10.60;21.70
490;DHT22;231;48.120;11.576;2024-03-02T16:58:20;10.50;21.80
490;DHT22;231;48.120;11.576;2024-03-02T17:00:46;10.40;21.70
490;DHT22;231;48.120;11.576;2024-03-02T17:03:15;10.40;21.70
490;DHT22;231;48.120;11.576;2024-03-02T17:05:44;10.40;21.40
490;DHT22;231;48.120;11.576;2024-03-02T17:08:11;10.30;21.20
490;DHT22;231;48.120;11.576;2024-03-02T17:10:38;10.20;22.40
490;DHT22;231;48.120;11.576;2024-03-02T17:13:06;10.00;23.70
490;DHT22;231;48.120;11.576;2024-03-02T17:15:32;9.80;25.90
490;DHT22;231;48.120;11.576;2024-03-02T17:18:00;9.70;27.80
490;DHT22;231;48.120;11.576;2024-03-02T17:20:29;9.60;28.50
490;DHT22;231;48.120;11.576;2024-03-02T17:22:56;9.50;30.90
490;DHT22;231;48.120;11.576;2024-03-02T17:25:23;9.40;32.60
490;DHT22;231;48.120;11.576;2024-03-02T17:27:50;9.30;34.30
490;DHT22;231;48.120;11.576;2024-03-02T17:30:17;9.20;37.30
490;DHT22;231;48.120;11.576;2024-03-02T17:32:45;9.10;40.50
490;DHT22;231;48.120;11.576;2024-03-02T17:35:13;9.10;40.60
490;DHT22;231;48.120;11.576;2024-03-02T17:37:54;9.00;40.80
490;DHT22;231;48.120;11.576;2024-03-02T17:40:27;8.90;44.60
490;DHT22;231;48.120;11.576;2024-03-02T17:43:09;8.90;45.20
490;DHT22;231;48.120;11.576;2024-03-02T17:45:42;8.80;47.30
490;DHT22;231;48.120;11.576;2024-03-02T17:48:09;8.70;48.50
490;DHT22;231;48.120;11.576;2024-03-02T17:50:37;8.70;51.60
490;DHT22;231;48.120;11.576;2024-03-02T17:53:06;8.60;54.70
490;DHT22;231;48.120;11.576;2024-03-02T17:55:33;8.60;56.00
490;DHT22;231;48.120;11.576;2024-03-02T17:58:06;8.50;57.60
490;DHT22;231;48.120;11.576;2024-03-02T18:00:35;8.40;59.60
490;DHT22;231;48.120;11.576;2024-03-02T18:03:02;8.40;62.00
490;DHT22;231;48.120;11.576;2024-03-02T18:05:29;8.30;62.80
490;DHT22;231;48.120;11.576;2024-03-02T18:07:57;8.30;67.10
490;DHT22;231;48.120;11.576;2024-03-02T18:10:25;8.20;71.50
490;DHT22;231;48.120;11.576;2024-03-02T18:12:54;8.20;70.60
490;DHT22;231;48.120;11.576;2024-03-02T18:15:21;8.10;69.30
490;DHT22;231;48.120;11.576;2024-03-02T18:17:48;8.10;70.30
490;DHT22;231;48.120;11.576;2024-03-02T18:20:15;8.00;70.80
490;DHT22;231;48.120;11.576;2024-03-02T18:22:42;7.90;74.50
490;DHT22;231;48.120;11.576;2024-03-02T18:25:09;7.80;79.90
490;DHT22;231;48.120;11.576;2024-03-02T18:27:37;7.70;82.60
490;DHT22;231;48.120;11.576;2024-03-02T18:30:05;7.70;85.30
490;DHT22;231;48.120;11.576;2024-03-02T18:32:36;7.60;89.30
490;DHT22;231;48.120;11.576;2024-03-02T18:35:03;7.50;91.80
490;DHT22;231;48.120;11.576;2024-03-02T18:37:30;7.50;92.60
490;DHT22;231;48.120;11.576;2024-03-02T18:39:57;7.50;93.60
490;DHT22;231;48.120;11.576;2024-03-02T18:42:24;7.40;92.60
490;DHT22;231;48.120;11.576;2024-03-02T18:44:53;7.50;94.20
490;DHT22;231;48.120;11.576;2024-03-02T18:47:19;7.60;96.40
490;DHT22;231;48.120;11.576;2024-03-02T18:49:46;7.60;96.50
490;DHT22;231;48.120;11.576;2024-03-02T18:52:13;7.70;97.10
490;DHT22;231;48.120;11.576;2024-03-02T18:57:44;7.50;93.40
490;DHT22;231;48.120;11.576;2024-03-02T19:00:14;7.30;93.10
490;DHT22;231;48.120;11.576;2024-03-02T19:02:41;7.30;93.90
490;DHT22;231;48.120;11.576;2024-03-02T19:05:08;7.10;94.50
490;DHT22;231;48.120;11.576;2024-03-02T19:07:36;7.10;96.20
490;DHT22;231;48.120;11.576;2024-03-02T19:10:03;7.00;96.60
490;DHT22;231;48.120;11.576;2024-03-02T19:12:32;6.90;97.00
490;DHT22;231;48.120;11.576;2024-03-02T19:14:59;6.80;98.40
490;DHT22;231;48.120;11.576;2024-03-02T19:17:28;6.80;99.90
490;DHT22;231;48.120;11.576;2024-03-02T19:19:55;6.70;99.90
490;DHT22;231;48.120;11.576;2024-03-02T19:22:22;6.60;99.90
490;DHT22;231;48.120;11.576;2024-03-02T19:24:49;6.60;99.90
490;DHT22;231;48.120;11.576;2024-03-02T19:27:16;6.60;99.90
490;DHT22;231;48.120;11.576;2024-03-02T19:29:43;6.70;99.90
490;DHT22;231;48.120;11.576;2024-03-02T19:32:10;6.80;99.90
490;DHT22;231;48.120;11.576;2024-03-02T19:34:38;6.80;99.90
490;DHT22;231;48.120;11.576;2024-03-02T19:37:05;6.90;99.90
490;DHT22;231;48.120;11.576;2024-03-02T19:39:32;6.90;99.90
490;DHT22;231;48.120;11.576;2024-03-02T19:42:02;6.90;99.90
490;DHT22;231;48.120;11.576;2024-03-02T19:44:29;6.90;99.90
490;DHT22;231;48.120;11.576;2024-03-02T19:46:58;6.90;99.90
490;DHT22;231;48.120;11.576;2024-03-02T19:49:25;6.90;99.90
490;DHT22;231;48.120;11.576;2024-03-02T19:51:53;6.80;99.90
490;DHT22;231;48.120;11.576;2024-03-02T19:54:20;6.70;99.90
490;DHT22;231;48.120;11.576;2024-03-02T19:56:47;6.60;99.90
490;DHT22;231;48.120;11.576;2024-03-02T19:59:13;6.50;99.90
490;DHT22;231;48.120;11.576;2024-03-02T20:01:40;6.40;99.90
490;DHT22;231;48.120;11.576;2024-03-02T20:04:07;6.40;99.90
490;DHT22;231;48.120;11.576;2024-03-02T23:32:36;4.70;99.90
490;DHT22;231;48.120;11.576;2024-03-02T23:41:32;4.90;99.90
490;DHT22;231;48.120;11.576;2024-03-02T23:53:54;4.80;99.90
490;DHT22;231;48.120;11.576;2024-03-02T23:59:22;4.70;99.90
